EYVI/VNO METAR and TAF weather

Enter ICAO airport designator
Station Type Date Time Source
EYVI METAR 2022/01/23 12:20 UTC NOAA

EYVI 231220Z 05002KT 9999 FEW017 M04/M08 Q1029 NOSIG


Station Type Date Time Source
EYVI Decoded METAR 2022/01/23 12:20 UTC NOAA

Vilnius, Lithuania (EYVI) 54-38N 025-06E 156M
Jan 23, 2022 - 07:20 AM EST / 2022.01.23 1220 UTC
Wind: from the NE (050 degrees) at 2 MPH (2 KT):0
Visibility: greater than 7 mile(s):0
Sky conditions: mostly clear
Temperature: 24 F (-4 C)
Dew Point: 17 F (-8 C)
Relative Humidity: 73%
Pressure (altimeter): 30.39 in. Hg (1029 hPa)
ob: EYVI 231220Z 05002KT 9999 FEW017 M04/M08 Q1029 NOSIG
cycle: 12

Station Type Date Time Source
EYVI TAF 2022/01/23 12:03 UTC NOAA

TAF EYVI 231100Z 2312/2412 VRB05KT 9000 SCT010 BKN030
FM231800 NSC
TEMPO 2318/2324 3000 BR SCT005

Example: see airport list